Vail, Arizona
Current Conditions -  °F | °C
As of 10:58 PM on Tuesday 21 Oct 2014 (Local Time) from KDMA Reporting Station
Clear Clear  
Wind Chill: 66°   Ceiling: Unl
Heat Index: 66°   Visibility: 10mi
Dew Point: 51°   Wind: 9mph
Humidity: 58%   Direction: 150°SSE
Pressure: 29.93"   Gusts: NA
Location:  32.05°N, 110.71°W
Report Text: KDMA 220558Z AUTO 15008KT 10SM CLR 19/11 A2993 RMK AO2 SLP098 T01880105 10274 20187 51013 $
Loading
Personal Weather Stations






























Interactive Weather Map
Tropical Storm Tracking
New forecast layout! Learn more

10-Day Weather Forecast

Advertisements
Track Severe Weather on mobile